Colvin, New York
Current Conditions -  °F | °C
As of 4:45 PM on Wednesday 17 Dec 2014 (Local Time) from KSYR Reporting Station
Light Snow Light Snow  
Wind Chill: 25°   Ceiling: 1100
Heat Index: 33°   Visibility: 9mi
Dew Point: 32°   Wind: 10mph
Humidity: 96%   Direction: 260°W
Pressure: 29.88"   Gusts: NA
Location:  43.0062°N, 76.1429°W
Report Text: KSYR 172145Z 26009KT 9SM -RASN BKN011 BKN016 OVC022 01/00 A2988 RMK AO2 SNB28 P0000 T00060000 $
Loading
Personal Weather Stations






























Interactive Weather Map New forecast layout! Learn more

10-Day Weather Forecast

Advertisements
Track Severe Weather on mobile